createdAt,value
2018-09-03T00:00:17.795Z,49.9
2018-09-03T00:00:49.869Z,50.01
2018-09-03T00:01:21.931Z,50.28
2018-09-03T00:01:54.000Z,50.38
2018-09-03T00:02:26.134Z,50.38
2018-09-03T00:02:58.175Z,50.09
2018-09-03T00:03:30.221Z,50.11
2018-09-03T00:04:02.266Z,50.28
2018-09-03T00:04:34.328Z,49.99
2018-09-03T00:05:06.348Z,49.99
2018-09-03T00:05:38.374Z,50.09
2018-09-03T00:06:10.425Z,50.09
2018-09-03T00:06:42.529Z,50.09
2018-09-03T00:07:14.578Z,50.09
2018-09-03T00:07:46.650Z,50.11
2018-09-03T00:08:18.719Z,50.28
2018-09-03T00:08:50.841Z,50.18
2018-09-03T00:09:22.959Z,50.09
2018-09-03T00:09:54.990Z,50.18
2018-09-03T00:10:27.046Z,50.18
2018-09-03T00:10:59.101Z,50.09
2018-09-03T00:11:31.147Z,50.09
2018-09-03T00:12:03.222Z,50.57
2018-09-03T00:12:35.304Z,49.92
2018-09-03T00:13:07.367Z,50.57
2018-09-03T00:13:39.527Z,50.47
2018-09-03T00:14:11.574Z,50.57
2018-09-03T00:14:43.656Z,49.82
2018-09-03T00:15:15.705Z,49.9
2018-09-03T00:15:47.742Z,49.9
2018-09-03T00:16:19.796Z,50.57
2018-09-03T00:16:51.823Z,50.57
2018-09-03T00:17:23.889Z,50.57
2018-09-03T00:17:55.947Z,50.09
2018-09-03T00:18:28.024Z,49.99
2018-09-03T00:19:00.087Z,50.38
2018-09-03T00:19:32.131Z,50.47
2018-09-03T00:20:04.170Z,50.47
2018-09-03T00:20:36.230Z,50.57
2018-09-03T00:21:08.277Z,50.47
2018-09-03T00:21:40.350Z,50.47
2018-09-03T00:22:12.406Z,50.47
2018-09-03T00:22:44.458Z,50.57
2018-09-03T00:23:16.476Z,49.9
2018-09-03T00:23:48.510Z,50.28
2018-09-03T00:24:20.566Z,50.28
2018-09-03T00:24:52.589Z,50.31
2018-09-03T00:25:24.665Z,49.9
2018-09-03T00:25:56.711Z,50.09
2018-09-03T00:26:28.754Z,50.28
2018-09-03T00:27:00.831Z,49.7
2018-09-03T00:27:32.889Z,50.28
2018-09-03T00:28:04.905Z,49.8
2018-09-03T00:28:36.956Z,50.38
2018-09-03T00:29:09.040Z,50.38
2018-09-03T00:29:41.117Z,50.38
2018-09-03T00:30:13.192Z,50.47
2018-09-03T00:30:45.272Z,50.38
2018-09-03T00:31:17.339Z,50.38
2018-09-03T00:31:49.512Z,50.38
2018-09-03T00:32:21.610Z,50.18
2018-09-03T00:32:53.665Z,50.38
2018-09-03T00:33:25.723Z,50.38
2018-09-03T00:33:57.754Z,50.38
2018-09-03T00:34:29.840Z,49.9
2018-09-03T00:35:01.893Z,49.99
2018-09-03T00:35:33.976Z,50.18
2018-09-03T00:36:05.978Z,49.99
2018-09-03T00:36:38.053Z,49.9
2018-09-03T00:37:10.078Z,50.28
2018-09-03T00:37:42.189Z,49.9
2018-09-03T00:38:14.310Z,50.09
2018-09-03T00:38:46.361Z,50.28
2018-09-03T00:39:18.416Z,50.38
2018-09-03T00:39:50.443Z,50.09
2018-09-03T00:40:22.515Z,50.76
2018-09-03T00:40:54.596Z,50.18
2018-09-03T00:41:26.648Z,50.18
2018-09-03T00:41:58.721Z,50.18
2018-09-03T00:42:30.810Z,50.28
2018-09-03T00:43:02.860Z,49.99
2018-09-03T00:43:35.057Z,50.67
2018-09-03T00:44:07.132Z,50.18
2018-09-03T00:44:39.162Z,49.99
2018-09-03T00:45:11.226Z,50.18
2018-09-03T00:45:43.801Z,50.09
2018-09-03T00:46:15.829Z,49.99
2018-09-03T00:46:47.905Z,49.99
2018-09-03T00:47:19.948Z,50.09
2018-09-03T00:47:52.011Z,50.76
2018-09-03T00:48:24.058Z,50.57
2018-09-03T00:48:56.116Z,50.09
2018-09-03T00:49:28.163Z,50.67
2018-09-03T00:50:00.266Z,50.67
2018-09-03T00:50:32.331Z,50.18
2018-09-03T00:51:04.409Z,50.18
2018-09-03T00:51:36.442Z,50.47
2018-09-03T00:52:08.462Z,50.38
2018-09-03T00:52:40.535Z,50.09
2018-09-03T00:53:12.560Z,49.99
2018-09-03T00:53:44.755Z,50.28
2018-09-03T00:54:16.885Z,50.09
2018-09-03T00:54:48.942Z,50.09
2018-09-03T00:55:21.011Z,49.99
2018-09-03T00:55:53.046Z,50.09
2018-09-03T00:56:25.100Z,50.47
2018-09-03T00:56:57.148Z,49.99
2018-09-03T00:57:29.172Z,50.38
2018-09-03T00:58:01.245Z,50.28
2018-09-03T00:58:33.313Z,50.38
2018-09-03T00:59:05.340Z,49.99
2018-09-03T00:59:37.367Z,49.99
2018-09-03T01:00:09.451Z,50.09
2018-09-03T01:00:41.526Z,50.47
2018-09-03T01:01:13.547Z,50.18
2018-09-03T01:01:45.603Z,50.38
2018-09-03T01:02:17.675Z,50.47
2018-09-03T01:02:49.711Z,50.18
2018-09-03T01:03:21.763Z,50.28
2018-09-03T01:03:53.843Z,49.99
2018-09-03T01:04:25.881Z,50.09
2018-09-03T01:04:57.913Z,50.28
2018-09-03T01:05:29.955Z,50.18
2018-09-03T01:06:01.975Z,50.09
2018-09-03T01:06:34.027Z,49.99
2018-09-03T01:07:06.080Z,50.18
2018-09-03T01:07:38.149Z,50.09
2018-09-03T01:08:10.225Z,50.28
2018-09-03T01:08:42.281Z,50.18
2018-09-03T01:09:14.357Z,50.18
2018-09-03T01:09:46.407Z,50.09
2018-09-03T01:10:18.446Z,50.47
2018-09-03T01:10:50.495Z,50.28
2018-09-03T01:11:22.540Z,50.18
2018-09-03T01:11:54.606Z,50.18
2018-09-03T01:12:26.748Z,50.47
2018-09-03T01:12:58.789Z,50.57
2018-09-03T01:13:30.831Z,50.47
2018-09-03T01:14:02.878Z,50.47
2018-09-03T01:14:35.033Z,50.18
2018-09-03T01:15:07.186Z,50.28
2018-09-03T01:15:39.272Z,50.18
2018-09-03T01:16:11.352Z,50.28
2018-09-03T01:16:43.429Z,50.28
2018-09-03T01:17:15.504Z,50.47
2018-09-03T01:17:47.531Z,50.18
2018-09-03T01:18:19.593Z,50.18
2018-09-03T01:18:51.656Z,50.28
2018-09-03T01:19:23.820Z,50.38
2018-09-03T01:19:55.877Z,50.67
2018-09-03T01:20:27.916Z,50.28
2018-09-03T01:20:59.969Z,50.47
2018-09-03T01:21:32.022Z,50.38
2018-09-03T01:22:04.153Z,50.28
2018-09-03T01:22:36.185Z,50.38
2018-09-03T01:23:08.294Z,50.38
2018-09-03T01:23:40.347Z,50.47
2018-09-03T01:24:12.369Z,50.38
2018-09-03T01:24:44.941Z,50.47
2018-09-03T01:25:17.011Z,50.57
2018-09-03T01:25:49.062Z,50.67
2018-09-03T01:26:21.117Z,50.57
2018-09-03T01:26:53.199Z,50.67
2018-09-03T01:27:25.208Z,50.47
2018-09-03T01:27:57.291Z,50.57
2018-09-03T01:28:29.368Z,50.38
2018-09-03T01:29:01.403Z,50.38
2018-09-03T01:29:33.451Z,50.38
2018-09-03T01:30:05.560Z,50.47
2018-09-03T01:30:37.624Z,50.47
2018-09-03T01:31:10.225Z,50.47
2018-09-03T01:31:42.297Z,50.57
2018-09-03T01:32:14.313Z,50.47
2018-09-03T01:32:46.355Z,50.67
2018-09-03T01:33:18.562Z,50.67
2018-09-03T01:33:50.655Z,50.18
2018-09-03T01:34:22.664Z,50.57
2018-09-03T01:34:54.734Z,50.67
2018-09-03T01:35:26.842Z,50.47
2018-09-03T01:35:58.853Z,50.57
2018-09-03T01:36:30.913Z,50.67
2018-09-03T01:37:02.941Z,50.28
2018-09-03T01:37:35.112Z,50.57
2018-09-03T01:38:07.129Z,50.38
2018-09-03T01:38:39.199Z,50.57
2018-09-03T01:39:11.190Z,50.38
2018-09-03T01:39:43.831Z,50.57
2018-09-03T01:40:15.823Z,50.76
2018-09-03T01:40:47.830Z,50.38
2018-09-03T01:41:19.863Z,50.38
2018-09-03T01:41:51.874Z,50.47
2018-09-03T01:42:23.942Z,50.57
2018-09-03T01:42:56.101Z,50.67
2018-09-03T01:43:28.218Z,50.57
2018-09-03T01:44:00.260Z,50.76
2018-09-03T01:44:32.286Z,50.67
2018-09-03T01:45:04.339Z,50.76
2018-09-03T01:45:36.451Z,50.74
2018-09-03T01:46:08.583Z,50.76
2018-09-03T01:46:40.648Z,50.67
2018-09-03T01:47:12.718Z,50.76
2018-09-03T01:47:44.791Z,50.38
2018-09-03T01:48:16.832Z,50.76
2018-09-03T01:48:48.900Z,50.76
2018-09-03T01:49:20.949Z,50.67
2018-09-03T01:49:53.000Z,50.18
2018-09-03T01:50:25.052Z,50.76
2018-09-03T01:50:57.093Z,50.67
2018-09-03T01:51:29.147Z,50.96
2018-09-03T01:52:01.192Z,50.76
2018-09-03T01:52:33.355Z,50.96
2018-09-03T01:53:05.411Z,50.86
2018-09-03T01:53:37.495Z,50.86
2018-09-03T01:54:09.532Z,50.57
2018-09-03T01:54:41.600Z,49.9
2018-09-03T01:55:13.626Z,50.86
2018-09-03T01:55:45.649Z,50.96
2018-09-03T01:56:18.646Z,50.96
2018-09-03T01:56:50.662Z,50.86
2018-09-03T01:57:22.711Z,50.28
2018-09-03T01:57:54.790Z,50.84
2018-09-03T01:58:26.868Z,50.86
2018-09-03T01:58:59.042Z,50.09
2018-09-03T01:59:31.075Z,50.76
2018-09-03T02:00:03.119Z,50.84
2018-09-03T02:00:35.181Z,50.76
2018-09-03T02:01:07.266Z,50.86
2018-09-03T02:01:39.301Z,50.67
2018-09-03T02:02:11.352Z,50.76
2018-09-03T02:02:43.498Z,50.84
2018-09-03T02:03:15.549Z,50.67
2018-09-03T02:03:47.623Z,50.76
2018-09-03T02:04:19.646Z,50.74
2018-09-03T02:04:51.706Z,50.67
2018-09-03T02:05:23.755Z,50.67
2018-09-03T02:05:55.875Z,50.96
2018-09-03T02:06:27.917Z,50.96
2018-09-03T02:06:59.997Z,50.76
2018-09-03T02:07:32.025Z,50.76
2018-09-03T02:08:04.099Z,50.76
2018-09-03T02:08:36.137Z,50.57
2018-09-03T02:09:08.208Z,50.76
2018-09-03T02:09:40.196Z,50.93
2018-09-03T02:10:12.244Z,50.93
2018-09-03T02:10:44.310Z,50.93
2018-09-03T02:11:16.316Z,51.15
2018-09-03T02:11:48.383Z,50.96
2018-09-03T02:12:20.394Z,51.05
2018-09-03T02:12:52.446Z,50.96
2018-09-03T02:13:24.485Z,50.74
2018-09-03T02:13:56.550Z,50.74
2018-09-03T02:14:28.625Z,50.74
2018-09-03T02:15:00.733Z,50.67
2018-09-03T02:15:32.736Z,50.67
2018-09-03T02:16:04.762Z,50.67
2018-09-03T02:16:36.835Z,51.15
2018-09-03T02:17:08.883Z,51.25
2018-09-03T02:17:40.924Z,51.22
2018-09-03T02:18:12.966Z,51.22
2018-09-03T02:18:45.823Z,50.64
2018-09-03T02:19:17.898Z,51.25
2018-09-03T02:19:50.013Z,50.84
2018-09-03T02:20:22.745Z,51.34
2018-09-03T02:20:54.820Z,51.22
2018-09-03T02:21:27.537Z,51.22
2018-09-03T02:21:59.614Z,51.32
2018-09-03T02:22:31.672Z,50.57
2018-09-03T02:23:03.691Z,51.32
2018-09-03T02:23:35.756Z,51.25
2018-09-03T02:24:07.832Z,51.22
2018-09-03T02:24:39.899Z,51.25
2018-09-03T02:25:11.892Z,51.25
2018-09-03T02:25:44.038Z,51.32
2018-09-03T02:26:16.076Z,51.32
2018-09-03T02:26:48.143Z,50.54
2018-09-03T02:27:20.199Z,51.25
2018-09-03T02:27:52.230Z,50.64
2018-09-03T02:28:24.252Z,51.25
2018-09-03T02:28:56.307Z,51.25
2018-09-03T02:29:28.358Z,51.32
2018-09-03T02:30:00.379Z,50.54
2018-09-03T02:30:32.464Z,50.54
2018-09-03T02:31:04.483Z,50.45
2018-09-03T02:31:36.524Z,51.34
2018-09-03T02:32:08.684Z,50.57
2018-09-03T02:32:40.839Z,50.54
2018-09-03T02:33:12.888Z,51.22
2018-09-03T02:33:44.963Z,51.22
2018-09-03T02:34:17.042Z,50.54
2018-09-03T02:34:49.113Z,51.12
2018-09-03T02:35:21.102Z,51.25
2018-09-03T02:35:53.144Z,51.25
2018-09-03T02:36:25.290Z,50.54
2018-09-03T02:36:57.863Z,51.12
2018-09-03T02:37:29.945Z,50.47
2018-09-03T02:38:02.017Z,51.15
2018-09-03T02:38:34.050Z,51.12
2018-09-03T02:39:06.096Z,50.45
2018-09-03T02:39:38.145Z,51.22
2018-09-03T02:40:10.222Z,50.54
2018-09-03T02:40:42.279Z,51.22
2018-09-03T02:41:14.336Z,51.22
2018-09-03T02:41:46.499Z,51.03
2018-09-03T02:42:18.541Z,51.03
2018-09-03T02:42:50.587Z,51.15
2018-09-03T02:43:22.696Z,51.03
2018-09-03T02:43:54.756Z,50.64
2018-09-03T02:44:26.777Z,51.12
2018-09-03T02:44:58.816Z,50.84
2018-09-03T02:45:30.892Z,50.64
2018-09-03T02:46:02.976Z,51.03
2018-09-03T02:46:35.025Z,51.03
2018-09-03T02:47:07.073Z,51.12
2018-09-03T02:47:39.190Z,50.54
2018-09-03T02:48:11.217Z,50.54
2018-09-03T02:48:43.232Z,51.12
2018-09-03T02:49:15.296Z,51.03
2018-09-03T02:49:47.352Z,50.54
2018-09-03T02:50:19.353Z,50.93
2018-09-03T02:50:51.399Z,51.03
2018-09-03T02:51:23.477Z,50.54
2018-09-03T02:51:55.559Z,51.12
2018-09-03T02:52:27.627Z,50.54
2018-09-03T02:52:59.705Z,51.03
2018-09-03T02:53:31.847Z,50.93
2018-09-03T02:54:03.860Z,51.03
2018-09-03T02:54:35.872Z,51.03
2018-09-03T02:55:07.892Z,50.64
2018-09-03T02:55:39.924Z,50.64
2018-09-03T02:56:12.021Z,50.93
2018-09-03T02:56:44.030Z,50.74
2018-09-03T02:57:16.093Z,51.03
2018-09-03T02:57:48.161Z,51.03
2018-09-03T02:58:20.230Z,50.93
2018-09-03T02:58:52.273Z,50.93
2018-09-03T02:59:24.303Z,50.74
2018-09-03T02:59:56.352Z,51.03
2018-09-03T03:00:28.400Z,51.03
2018-09-03T03:01:00.449Z,51.03
2018-09-03T03:01:32.480Z,50.64
2018-09-03T03:02:04.538Z,51.03
2018-09-03T03:02:36.592Z,50.93
2018-09-03T03:03:08.660Z,50.93
2018-09-03T03:03:40.711Z,50.93
2018-09-03T03:04:12.786Z,50.93
2018-09-03T03:04:44.848Z,50.74
2018-09-03T03:05:17.350Z,50.93
2018-09-03T03:05:49.394Z,50.74
2018-09-03T03:06:21.403Z,50.74
2018-09-03T03:06:53.495Z,50.84
2018-09-03T03:07:25.601Z,51.03
2018-09-03T03:07:57.643Z,51.03
2018-09-03T03:08:29.711Z,51.12
2018-09-03T03:09:01.765Z,50.74
2018-09-03T03:09:33.855Z,51.03
2018-09-03T03:10:05.860Z,50.93
2018-09-03T03:10:37.944Z,51.03
2018-09-03T03:11:10.020Z,50.74
2018-09-03T03:11:42.085Z,51.03
2018-09-03T03:12:14.174Z,51.03
2018-09-03T03:12:46.194Z,51.03
2018-09-03T03:13:18.283Z,51.03
2018-09-03T03:13:50.414Z,51.32
2018-09-03T03:14:22.466Z,50.74
2018-09-03T03:14:54.528Z,50.84
2018-09-03T03:15:26.595Z,50.93
2018-09-03T03:15:58.586Z,51.41
2018-09-03T03:16:30.651Z,50.93
2018-09-03T03:17:02.700Z,50.74
2018-09-03T03:17:34.760Z,51.41
2018-09-03T03:18:06.865Z,51.41
2018-09-03T03:18:38.905Z,51.41
2018-09-03T03:19:10.919Z,51.41
2018-09-03T03:19:42.986Z,51.32
2018-09-03T03:20:15.045Z,51.32
2018-09-03T03:20:47.066Z,51.12
2018-09-03T03:21:19.121Z,51.03
2018-09-03T03:21:51.206Z,51.41
2018-09-03T03:22:23.267Z,51.32
2018-09-03T03:22:55.286Z,51.32
2018-09-03T03:23:27.350Z,51.03
2018-09-03T03:23:59.397Z,51.41
2018-09-03T03:24:31.443Z,51.41
2018-09-03T03:25:03.480Z,51.03
2018-09-03T03:25:35.587Z,51.12
2018-09-03T03:26:07.657Z,51.41
2018-09-03T03:26:39.731Z,51.41
2018-09-03T03:27:11.780Z,51.41
2018-09-03T03:27:43.860Z,51.41
2018-09-03T03:28:15.920Z,51.41
2018-09-03T03:28:47.919Z,51.03
2018-09-03T03:29:19.966Z,51.32
2018-09-03T03:29:52.080Z,51.32
